Ana Sayfa
METAR-TAF:

METAR-TAF

Havaalanları :

Hazleton, Pensilvanya, Amerika Birleşik Devletleri

Enlem: 40-59-12N, Boylam: 075-59-42W, yükseklik: 489 m

Güncel hava durumu gözlemi

Rapor saat 04:56 UTC de 27 dakika önce yapıldı.
Sakin rüzgar
Sıcaklık 3°C
Nem 87%
Basınç 1011 hPa
Görüş mesafesi: 16.1 km
900 ft yükseklikte parçalı bulutlu
4400 ft yükseklikte parçalı çok bulutlu

METAR: KHZL 010456Z AUTO 00000KT 10SM SCT009 BKN044 03/01 A2985 RMK AO2

Saat: 01:23 (05:23 UTC)


TAF: eksik

4.000'den fazla havaalanı için hava durumu gözlemleri ve tahminleri (METAR ve TAF raporları).

Kullanılabilir istasyonlar harita üzerinde sarı ve kırmızı noktalarla gösterilir.

İstasyonun adını görmek için fareyi noktanın üzerinde gezdirin.

Sonrasında hava gözlem ve tahminlerini görmek için tıklayın.

Haritayı değiştirmek için: yaklaştırmak için siyah artı işaretli yeşil düğmeye ve uzaklaştırmak için de eksi işaretli düğmeye hızla tıklayın; bitişik haritalar için yeşil okları kullanın.


METAR-TAF: